This is the latest recevied weather packets stored in our database for station/object DL2ARH-7. If no packets are shown the sender has not sent any weather packets the latest 10 day(s).
| Time | Temp. | Humidity | Pressure | Rain* | Wind** | Luminosity | Snow |
|---|---|---|---|---|---|---|---|
| 1787916143 | 20° C | 85% | 1013.3 hPa | 0 mm | - | - | - |
| 1787916080 | 20° C | 85% | 1013.3 hPa | 0 mm | - | - | - |
| 1787916010 | 20° C | 84% | 1013.2 hPa | 0 mm | - | - | - |
| 1787915812 | 20.56° C | 82% | 1013.2 hPa | 0 mm | - | - | - |
| 1787915745 | 20.56° C | 82% | 1013 hPa | 0 mm | - | - | - |
| 1787915612 | 21.11° C | 81% | 1012.8 hPa | 0 mm | - | - | - |
| 1787915545 | 21.11° C | 80% | 1013 hPa | 0 mm | - | - | - |
| 1787914282 | 23.33° C | 65% | 1012.1 hPa | 0 mm | - | - | - |
| 1787914082 | 23.33° C | 65% | 1012 hPa | 0 mm | - | - | - |
| 1787913883 | 23.89° C | 64% | 1011.8 hPa | 0 mm | - | - | - |
| 1787913818 | 23.89° C | 64% | 1011.6 hPa | 0 mm | - | - | - |
| 1787912686 | 24.44° C | 65% | 1010.5 hPa | 0 mm | - | - | - |
| 1787912353 | 24.44° C | 66% | 1010.2 hPa | 0 mm | - | - | - |
| 1787912090 | 24.44° C | 67% | 1010.3 hPa | 0 mm | - | - | - |
| 1787911955 | 24.44° C | 67% | 1009.9 hPa | 0 mm | - | - | - |
| 1787911888 | 48.89° C | 67% | 1010.1 hPa | 0 mm | - | - | - |
| 1787911755 | 49.44° C | 70% | 1010.2 hPa | 0 mm | - | - | - |
| 1787911690 | 24.44° C | 71% | 1010.2 hPa | 0 mm | - | - | - |
| 1787911621 | 23.89° C | 72% | 1010.2 hPa | 0 mm | - | - | - |
| 1787911489 | 23.89° C | 74% | 1010.3 hPa | 0 mm | - | - | - |
| 1787911422 | 23.89° C | 75% | 1010.3 hPa | 0 mm | - | - | - |
| 1787911289 | 22.78° C | 75% | 1010.2 hPa | 0 mm | - | - | - |
| 1787911156 | 22.78° C | 75% | 1010.4 hPa | 0 mm | - | - | - |
| 1787911024 | 22.78° C | 75% | 1010.2 hPa | 0 mm | - | - | - |
| 1787910957 | 22.78° C | 75% | 1010.1 hPa | 0 mm | - | - | - |
* Rain latest hour (hover to see other rain measurements)
** Current wind speed in m/s (hover to see current wind gust speed)